Time;durP1;ratioP1;P1;durP2;ratioP2;P2;SDS_P1;SDS_P2;PMS_P1;PMS_P2;Temp;Humidity;BMP_temperature;BMP_pressure;BME280_temperature;BME280_humidity;BME280_pressure;Samples;Min_cycle;Max_cycle;Signal;HPM_P1;HPM_P2
2023/05/19 00:02:04;;;;;;;10.75;4.97;;;7.60;99.90;;;;;;5053583;28;20441;-79
2023/05/19 00:04:30;;;;;;;9.30;5.37;;;7.60;99.90;;;;;;5070825;28;20378;-80
2023/05/19 00:06:59;;;;;;;8.65;4.93;;;7.60;99.90;;;;;;5054441;28;20337;-79
2023/05/19 00:09:25;;;;;;;8.98;5.22;;;7.60;99.90;;;;;;5069826;28;20052;-79
2023/05/19 00:11:50;;;;;;;12.98;5.05;;;7.60;99.90;;;;;;5069361;28;20044;-80
2023/05/19 00:14:16;;;;;;;12.50;5.20;;;7.70;99.90;;;;;;5089176;28;20036;-80
2023/05/19 00:16:42;;;;;;;7.53;5.30;;;7.50;99.90;;;;;;5088673;28;20046;-79
2023/05/19 00:19:08;;;;;;;11.38;5.10;;;7.50;99.90;;;;;;5070113;28;20051;-79
2023/05/19 00:21:36;;;;;;;7.78;4.93;;;7.50;99.90;;;;;;5088784;28;20130;-79
2023/05/19 00:24:02;;;;;;;11.80;5.80;;;7.50;99.90;;;;;;5070037;28;20044;-80
2023/05/19 00:26:27;;;;;;;11.85;5.13;;;7.40;99.90;;;;;;5070196;28;20092;-79
2023/05/19 00:28:53;;;;;;;7.88;4.93;;;7.40;99.90;;;;;;5073454;28;20127;-80
2023/05/19 00:31:18;;;;;;;10.52;5.63;;;7.40;99.90;;;;;;5068299;28;20037;-79
2023/05/19 00:33:44;;;;;;;10.10;5.75;;;7.40;99.90;;;;;;5079146;28;20509;-81
2023/05/19 00:36:10;;;;;;;13.82;5.40;;;7.30;99.90;;;;;;5087909;28;20052;-78
2023/05/19 00:38:36;;;;;;;12.60;5.55;;;7.30;99.90;;;;;;5087497;28;20131;-78
2023/05/19 00:41:03;;;;;;;7.00;5.15;;;7.30;99.90;;;;;;5087867;28;20089;-80
2023/05/19 00:43:29;;;;;;;13.18;5.72;;;7.30;99.90;;;;;;5087564;28;20088;-80
2023/05/19 00:45:55;;;;;;;12.77;5.13;;;7.30;99.90;;;;;;5088147;28;20037;-80
2023/05/19 00:48:21;;;;;;;11.23;4.93;;;7.30;99.90;;;;;;5069153;28;20088;-80
2023/05/19 00:50:49;;;;;;;8.73;5.30;;;7.20;99.90;;;;;;5088223;28;20094;-80
2023/05/19 00:53:16;;;;;;;10.48;5.72;;;7.20;99.90;;;;;;5086808;28;20048;-80
2023/05/19 00:55:42;;;;;;;10.25;4.85;;;7.20;99.90;;;;;;5070162;28;20048;-80
2023/05/19 00:58:10;;;;;;;8.93;5.30;;;7.20;99.90;;;;;;5052671;28;20051;-80
2023/05/19 01:00:37;;;;;;;8.77;5.10;;;7.20;99.90;;;;;;5069767;28;20126;-80
2023/05/19 01:03:09;;;;;;;11.07;5.03;;;7.20;99.90;;;;;;5088286;28;20139;-80
2023/05/19 01:05:40;;;;;;;10.07;5.47;;;7.10;99.90;;;;;;5088607;28;20051;-80
2023/05/19 01:08:06;;;;;;;14.75;5.68;;;7.10;99.90;;;;;;5069684;28;20078;-80
2023/05/19 01:10:32;;;;;;;10.60;5.80;;;7.10;99.90;;;;;;5069975;28;20127;-80
2023/05/19 01:12:57;;;;;;;13.13;6.00;;;7.10;99.90;;;;;;5068918;28;20154;-80
2023/05/19 01:15:25;;;;;;;14.68;5.43;;;7.10;99.90;;;;;;5069047;28;20116;-80
2023/05/19 01:18:15;;;;;;;11.35;5.72;;;7.10;99.90;;;;;;5088074;28;20131;-80
2023/05/19 01:20:47;;;;;;;12.25;5.50;;;7.10;99.90;;;;;;5070294;28;20126;-80
2023/05/19 01:23:43;;;;;;;12.63;6.13;;;7.10;99.90;;;;;;5087480;28;20044;-80
2023/05/19 01:26:27;;;;;;;11.75;5.15;;;7.20;99.90;;;;;;5069515;28;20052;-80
2023/05/19 01:29:23;;;;;;;13.02;5.95;;;7.20;99.90;;;;;;5087175;28;20063;-80
2023/05/19 01:31:49;;;;;;;13.10;5.75;;;7.20;99.90;;;;;;5087114;28;20052;-80
2023/05/19 01:34:16;;;;;;;12.85;5.55;;;7.10;99.90;;;;;;5086734;28;20040;-80
2023/05/19 01:36:43;;;;;;;11.02;5.43;;;7.10;99.90;;;;;;5074643;28;20040;-80
2023/05/19 01:39:10;;;;;;;12.45;6.00;;;7.10;99.90;;;;;;5051323;28;20115;-80
2023/05/19 01:41:39;;;;;;;15.77;6.47;;;7.10;99.90;;;;;;5060136;28;20036;-80
2023/05/19 01:44:05;;;;;;;9.30;5.05;;;7.10;99.90;;;;;;5069189;28;20052;-80
2023/05/19 01:46:30;;;;;;;16.13;6.35;;;7.10;99.90;;;;;;5088358;28;20044;-80
2023/05/19 01:48:57;;;;;;;13.52;5.55;;;7.10;99.90;;;;;;5068299;28;20047;-80
2023/05/19 01:51:22;;;;;;;11.10;5.53;;;7.10;99.90;;;;;;5069650;28;20138;-80
2023/05/19 01:53:48;;;;;;;11.30;5.10;;;7.10;99.90;;;;;;5052610;28;20818;-80
2023/05/19 01:56:20;;;;;;;11.75;5.28;;;7.10;99.90;;;;;;5087294;28;20084;-80
2023/05/19 01:58:58;;;;;;;13.52;5.88;;;7.10;99.90;;;;;;5085308;28;20044;-80
2023/05/19 02:01:40;;;;;;;12.15;5.43;;;7.00;99.90;;;;;;5070123;28;20055;-80
2023/05/19 02:04:14;;;;;;;12.20;6.40;;;7.00;99.90;;;;;;5088433;28;20068;-80
2023/05/19 02:06:59;;;;;;;11.15;5.13;;;7.00;99.90;;;;;;5090895;28;20574;-80
2023/05/19 02:09:31;;;;;;;13.57;5.75;;;7.00;99.90;;;;;;5090625;28;20048;-80
2023/05/19 02:12:22;;;;;;;10.48;4.93;;;7.00;99.90;;;;;;5056126;28;20079;-80
2023/05/19 02:15:11;;;;;;;12.65;5.70;;;7.00;99.90;;;;;;5072219;28;20501;-80
2023/05/19 02:17:46;;;;;;;12.40;5.97;;;7.00;99.90;;;;;;5073015;28;20052;-80
2023/05/19 02:20:12;;;;;;;15.23;5.40;;;7.00;99.90;;;;;;5073188;28;20109;-80
2023/05/19 02:22:38;;;;;;;14.00;5.82;;;7.00;99.90;;;;;;5056538;28;20054;-80
2023/05/19 02:25:04;;;;;;;12.57;5.78;;;7.00;99.90;;;;;;5072131;28;20044;-80
2023/05/19 02:27:29;;;;;;;11.80;6.07;;;7.00;99.90;;;;;;5090568;28;20478;-80
2023/05/19 02:29:55;;;;;;;10.57;5.93;;;7.10;99.90;;;;;;5091088;28;20184;-80
2023/05/19 02:32:21;;;;;;;9.60;5.65;;;7.00;99.90;;;;;;5090296;28;20146;-80
2023/05/19 02:34:47;;;;;;;11.38;5.35;;;7.00;99.90;;;;;;5090262;28;20512;-80
2023/05/19 02:37:15;;;;;;;11.88;5.40;;;7.00;99.90;;;;;;5072756;28;20040;-80
2023/05/19 02:39:41;;;;;;;14.48;5.88;;;7.00;99.90;;;;;;5072477;28;20490;-80
2023/05/19 02:42:07;;;;;;;11.95;5.53;;;7.00;99.90;;;;;;5090503;28;20127;-80
2023/05/19 02:44:33;;;;;;;11.07;5.40;;;7.00;99.90;;;;;;5071576;28;20166;-80
2023/05/19 02:46:58;;;;;;;11.85;5.57;;;7.00;99.90;;;;;;5035771;28;20048;-80
2023/05/19 02:49:24;;;;;;;13.05;5.18;;;7.00;99.90;;;;;;5084793;28;20044;-80
2023/05/19 02:51:49;;;;;;;13.02;6.53;;;7.00;99.90;;;;;;5072483;28;20418;-80
2023/05/19 02:54:15;;;;;;;12.25;5.78;;;7.00;99.90;;;;;;5070016;28;20036;-80
2023/05/19 02:56:41;;;;;;;14.15;5.65;;;7.00;99.90;;;;;;5067108;28;20036;-80
2023/05/19 02:59:06;;;;;;;14.75;6.05;;;7.00;99.90;;;;;;5055111;28;20051;-79
2023/05/19 03:01:32;;;;;;;10.70;5.63;;;7.00;99.90;;;;;;5072355;28;20047;-80
2023/05/19 03:03:58;;;;;;;14.45;6.10;;;7.00;99.90;;;;;;5054537;28;20522;-80
2023/05/19 03:06:23;;;;;;;15.40;5.75;;;7.00;99.90;;;;;;5051369;28;20443;-80
2023/05/19 03:08:50;;;;;;;13.93;5.88;;;7.00;99.90;;;;;;5051978;28;20398;-80
2023/05/19 03:11:16;;;;;;;13.95;6.10;;;7.00;99.90;;;;;;5072324;28;20060;-80
2023/05/19 03:13:41;;;;;;;19.65;6.97;;;6.90;99.90;;;;;;5090103;28;20044;-80
2023/05/19 03:16:07;;;;;;;16.00;5.72;;;7.00;99.90;;;;;;5085673;28;20051;-80
2023/05/19 03:18:33;;;;;;;14.82;5.72;;;6.90;99.90;;;;;;5071105;28;20087;-80
2023/05/19 03:20:59;;;;;;;10.63;5.63;;;7.00;99.90;;;;;;5088959;28;20040;-80
2023/05/19 03:23:26;;;;;;;12.23;6.00;;;6.90;99.90;;;;;;5089717;28;20070;-80
2023/05/19 03:25:53;;;;;;;10.52;5.85;;;6.90;99.90;;;;;;5070049;28;20052;-80
2023/05/19 03:28:18;;;;;;;10.10;5.72;;;6.90;99.90;;;;;;5088912;28;20382;-80
2023/05/19 03:30:44;;;;;;;11.15;5.60;;;6.80;99.90;;;;;;5072039;28;20047;-80
2023/05/19 03:33:10;;;;;;;10.35;5.60;;;7.20;99.90;;;;;;5090068;28;20040;-80
2023/05/19 03:35:36;;;;;;;12.10;5.40;;;6.80;99.90;;;;;;5089875;28;20489;-80
2023/05/19 03:38:02;;;;;;;12.27;5.60;;;6.80;99.90;;;;;;5088776;28;20097;-80
2023/05/19 03:40:27;;;;;;;13.25;5.43;;;6.80;99.90;;;;;;5089463;28;20054;-80
2023/05/19 03:42:53;;;;;;;18.58;6.20;;;6.80;99.90;;;;;;5071651;28;20047;-80
2023/05/19 03:45:19;;;;;;;13.18;6.38;;;6.80;99.90;;;;;;5089615;28;20044;-80
2023/05/19 03:47:46;;;;;;;13.93;6.22;;;6.80;99.90;;;;;;5089210;28;20564;-80
2023/05/19 03:50:12;;;;;;;12.93;5.28;;;6.80;99.90;;;;;;5054076;28;20526;-81
2023/05/19 03:52:38;;;;;;;15.07;6.40;;;6.80;99.90;;;;;;5089425;28;20463;-80
2023/05/19 03:55:05;;;;;;;16.95;6.45;;;6.80;99.90;;;;;;5070835;28;20044;-81
2023/05/19 03:57:32;;;;;;;10.88;6.10;;;6.90;99.90;;;;;;5088648;28;20518;-80
2023/05/19 03:59:58;;;;;;;12.82;6.32;;;6.90;99.90;;;;;;5069739;28;20126;-78
2023/05/19 04:02:24;;;;;;;9.70;5.97;;;6.90;99.90;;;;;;5069756;28;20036;-78
2023/05/19 04:04:49;;;;;;;13.38;6.13;;;6.90;99.90;;;;;;5087663;28;20407;-78
2023/05/19 04:07:15;;;;;;;12.57;5.90;;;6.90;99.90;;;;;;5088800;28;20051;-78
2023/05/19 04:09:41;;;;;;;14.23;6.53;;;7.00;99.90;;;;;;5054202;28;20071;-78
2023/05/19 04:12:07;;;;;;;15.93;6.05;;;7.00;99.90;;;;;;5069875;28;20064;-80
2023/05/19 04:14:32;;;;;;;16.08;6.20;;;7.00;99.90;;;;;;5068131;28;20440;-78
2023/05/19 04:16:58;;;;;;;15.52;6.28;;;7.70;99.90;;;;;;5068799;28;20088;-78
2023/05/19 04:19:24;;;;;;;12.68;6.25;;;7.10;99.90;;;;;;5056941;28;20079;-80
2023/05/19 04:21:50;;;;;;;10.85;6.03;;;7.10;99.90;;;;;;5088849;28;20048;-81
2023/05/19 04:24:16;;;;;;;13.20;6.10;;;7.10;99.90;;;;;;5087470;28;20091;-78
2023/05/19 04:26:44;;;;;;;11.13;6.60;;;7.20;99.90;;;;;;5088369;28;20435;-78
2023/05/19 04:29:12;;;;;;;14.35;6.78;;;7.20;99.90;;;;;;5084731;28;20044;-79
2023/05/19 04:31:41;;;;;;;9.35;5.90;;;7.30;99.90;;;;;;5070722;28;20387;-79
2023/05/19 04:34:06;;;;;;;12.95;6.47;;;7.40;99.90;;;;;;5050609;28;20075;-79
2023/05/19 04:36:32;;;;;;;14.38;6.30;;;7.30;99.90;;;;;;5068713;28;20044;-79
2023/05/19 04:39:01;;;;;;;13.00;6.50;;;7.40;99.90;;;;;;5067533;28;20045;-79
2023/05/19 04:41:27;;;;;;;14.77;6.68;;;7.40;99.90;;;;;;5085196;28;20352;-79
2023/05/19 04:43:52;;;;;;;16.33;6.70;;;7.50;99.90;;;;;;5088607;28;20058;-79
2023/05/19 04:46:23;;;;;;;13.50;6.35;;;7.50;99.90;;;;;;5087769;28;20078;-79
2023/05/19 04:48:52;;;;;;;15.73;6.35;;;7.60;99.90;;;;;;5087559;28;20051;-79
2023/05/19 04:51:18;;;;;;;16.88;6.53;;;7.60;99.90;;;;;;5087788;28;20048;-80
2023/05/19 04:53:44;;;;;;;12.85;5.82;;;7.70;99.90;;;;;;5087751;28;20083;-80
2023/05/19 04:56:13;;;;;;;10.95;6.43;;;7.70;99.90;;;;;;5070074;28;20067;-81
2023/05/19 04:58:40;;;;;;;12.43;6.43;;;7.70;99.90;;;;;;5068028;28;20135;-79
2023/05/19 05:01:06;;;;;;;12.48;7.00;;;7.80;99.90;;;;;;5073080;28;20100;-79
2023/05/19 05:03:33;;;;;;;11.35;6.82;;;7.90;99.90;;;;;;5105692;28;20043;-79
2023/05/19 05:05:58;;;;;;;13.02;6.53;;;8.00;99.90;;;;;;5070530;28;20529;-79
2023/05/19 05:08:24;;;;;;;11.77;7.05;;;8.00;99.90;;;;;;5086751;28;20048;-79
2023/05/19 05:10:51;;;;;;;10.90;6.20;;;8.10;99.90;;;;;;5069521;28;20093;-79
2023/05/19 05:13:21;;;;;;;12.25;6.90;;;8.10;99.90;;;;;;5087669;28;20043;-79
2023/05/19 05:15:46;;;;;;;11.13;6.53;;;8.30;99.90;;;;;;5087593;28;20051;-79
2023/05/19 05:18:13;;;;;;;14.65;7.30;;;8.30;99.90;;;;;;5069946;28;20051;-79
2023/05/19 05:20:44;;;;;;;16.48;6.97;;;8.40;99.90;;;;;;5087546;28;20126;-79
2023/05/19 05:23:16;;;;;;;11.80;6.88;;;8.50;99.90;;;;;;5068603;28;20048;-79
2023/05/19 05:25:43;;;;;;;12.30;6.22;;;8.60;99.90;;;;;;5068704;28;20572;-79
2023/05/19 05:28:09;;;;;;;14.80;6.68;;;8.70;99.90;;;;;;5067778;28;20044;-79
2023/05/19 05:30:34;;;;;;;13.02;6.72;;;8.90;99.90;;;;;;5067270;28;20414;-79
2023/05/19 05:33:01;;;;;;;10.63;6.32;;;9.00;99.90;;;;;;5087739;28;20154;-81
2023/05/19 05:35:27;;;;;;;13.60;5.82;;;9.60;99.90;;;;;;5082797;28;20494;-80
2023/05/19 05:37:53;;;;;;;11.15;5.80;;;10.70;99.90;;;;;;5072889;28;20171;-80
2023/05/19 05:40:19;;;;;;;10.88;5.75;;;12.20;99.90;;;;;;5075481;28;20461;-79
2023/05/19 05:42:45;;;;;;;10.15;5.80;;;12.60;99.90;;;;;;5071901;28;20188;-81
2023/05/19 05:45:10;;;;;;;8.13;5.10;;;13.40;99.90;;;;;;5093021;28;20036;-82
2023/05/19 05:47:38;;;;;;;8.75;5.53;;;14.10;99.90;;;;;;5057110;28;20051;-81
2023/05/19 05:50:07;;;;;;;10.57;4.97;;;14.70;99.90;;;;;;5092642;28;20821;-81
2023/05/19 05:52:36;;;;;;;12.27;5.85;;;15.10;99.90;;;;;;5056891;28;20048;-80
2023/05/19 05:55:02;;;;;;;9.43;5.30;;;15.30;99.90;;;;;;5073414;28;20054;-82
2023/05/19 05:57:29;;;;;;;9.32;5.03;;;15.20;99.90;;;;;;5072027;28;20109;-81
2023/05/19 05:59:55;;;;;;;8.70;4.80;;;15.70;99.90;;;;;;5091451;28;20048;-82
2023/05/19 06:02:21;;;;;;;8.68;5.00;;;16.10;99.90;;;;;;5073508;28;20067;-81
2023/05/19 06:04:46;;;;;;;7.55;4.75;;;16.60;99.90;;;;;;5091440;28;20040;-82
2023/05/19 06:07:12;;;;;;;8.65;5.13;;;16.90;99.90;;;;;;5072545;28;20055;-81
2023/05/19 06:09:37;;;;;;;8.82;4.90;;;17.30;99.90;;;;;;5087939;28;20048;-81
2023/05/19 06:12:03;;;;;;;6.30;4.38;;;17.30;99.90;;;;;;5068376;28;20044;-81
2023/05/19 06:14:29;;;;;;;8.90;4.60;;;17.20;99.90;;;;;;5089899;28;20124;-80
2023/05/19 06:16:55;;;;;;;7.85;4.38;;;17.20;99.90;;;;;;5090554;28;20397;-79
2023/05/19 06:19:20;;;;;;;6.78;4.75;;;16.90;99.90;;;;;;5089692;28;20062;-81
2023/05/19 06:21:46;;;;;;;8.05;4.50;;;16.90;99.90;;;;;;5072679;28;20093;-80
2023/05/19 06:24:11;;;;;;;7.95;4.30;;;16.80;99.90;;;;;;5066798;28;20151;-80
2023/05/19 06:26:37;;;;;;;6.32;4.45;;;16.30;99.90;;;;;;5069531;28;20924;-80
2023/05/19 06:29:03;;;;;;;9.82;4.95;;;15.60;99.90;;;;;;5055809;28;20052;-80
2023/05/19 06:31:28;;;;;;;6.38;4.38;;;14.70;99.90;;;;;;5087696;28;20750;-80
2023/05/19 06:33:54;;;;;;;8.50;4.32;;;14.00;99.90;;;;;;5071163;28;20044;-81
2023/05/19 06:36:20;;;;;;;8.40;4.63;;;13.70;99.90;;;;;;5071089;28;20123;-80
2023/05/19 06:38:45;;;;;;;11.95;4.35;;;13.50;99.90;;;;;;5070009;28;20143;-80
2023/05/19 06:41:12;;;;;;;8.40;4.82;;;13.40;99.90;;;;;;5058104;28;20044;-80
2023/05/19 06:43:37;;;;;;;9.00;4.20;;;13.20;99.90;;;;;;5070945;28;20044;-80
2023/05/19 06:46:03;;;;;;;6.82;4.03;;;13.20;99.90;;;;;;5052290;28;20047;-79
2023/05/19 06:48:29;;;;;;;9.70;4.45;;;13.20;99.90;;;;;;5089666;28;20567;-80
2023/05/19 06:50:55;;;;;;;8.13;4.40;;;13.20;99.90;;;;;;5086822;28;20052;-79
2023/05/19 06:53:21;;;;;;;9.65;4.15;;;13.30;99.90;;;;;;5087191;28;20439;-78
2023/05/19 06:55:50;;;;;;;9.00;4.57;;;13.30;99.90;;;;;;5089790;28;20054;-79
2023/05/19 06:58:16;;;;;;;7.72;3.72;;;13.30;99.90;;;;;;5055711;28;20040;-80
2023/05/19 07:00:42;;;;;;;7.45;4.15;;;13.70;99.90;;;;;;5089858;28;20048;-80
2023/05/19 07:03:08;;;;;;;9.63;4.25;;;13.50;99.90;;;;;;5092880;28;20130;-80
2023/05/19 07:05:34;;;;;;;10.68;4.78;;;13.20;99.90;;;;;;5089764;28;20144;-81
2023/05/19 07:08:07;;;;;;;8.00;4.03;;;13.20;99.90;;;;;;5088659;28;20692;-81
2023/05/19 07:10:32;;;;;;;7.30;3.80;;;13.20;99.90;;;;;;5052786;28;20044;-80
2023/05/19 07:12:58;;;;;;;7.88;4.30;;;13.50;99.90;;;;;;5069286;28;20105;-80
2023/05/19 07:15:23;;;;;;;7.88;3.97;;;13.70;99.90;;;;;;5087080;28;20051;-81
2023/05/19 07:17:49;;;;;;;7.25;4.30;;;13.90;99.90;;;;;;5087694;28;20131;-80
2023/05/19 07:20:15;;;;;;;9.45;4.10;;;14.00;99.90;;;;;;5068386;28;20456;-81
2023/05/19 07:22:40;;;;;;;6.22;3.25;;;14.20;99.90;;;;;;5067395;28;20151;-81
2023/05/19 07:25:07;;;;;;;9.45;4.28;;;14.30;99.90;;;;;;5083420;28;20036;-80
2023/05/19 07:27:32;;;;;;;6.25;3.72;;;14.40;99.90;;;;;;5054639;28;20097;-81
2023/05/19 07:29:58;;;;;;;6.90;4.03;;;14.50;99.90;;;;;;5070009;28;20056;-80
2023/05/19 07:32:24;;;;;;;5.28;3.03;;;14.70;99.90;;;;;;5087612;28;20115;-81
2023/05/19 07:34:49;;;;;;;5.55;3.40;;;14.90;99.90;;;;;;5089122;28;20044;-81
2023/05/19 07:37:15;;;;;;;5.00;3.28;;;15.00;99.90;;;;;;5087958;28;20369;-80
2023/05/19 07:39:44;;;;;;;5.05;3.25;;;15.10;99.60;;;;;;5070214;28;20040;-81
2023/05/19 07:42:09;;;;;;;6.68;3.38;;;15.20;98.80;;;;;;5052987;28;20044;-81
2023/05/19 07:44:35;;;;;;;7.25;3.63;;;15.30;97.50;;;;;;5070179;28;20780;-81
2023/05/19 07:47:00;;;;;;;7.05;3.17;;;15.70;97.00;;;;;;5087908;28;20056;-81
2023/05/19 07:49:26;;;;;;;6.10;2.90;;;15.40;94.40;;;;;;5066621;28;20087;-81
2023/05/19 07:51:52;;;;;;;7.47;3.75;;;15.30;93.50;;;;;;5070500;28;20084;-81
2023/05/19 07:54:20;;;;;;;8.80;3.28;;;15.40;92.80;;;;;;5051084;28;20034;-81
2023/05/19 07:56:47;;;;;;;4.00;3.30;;;15.40;92.30;;;;;;5053975;28;20040;-81
2023/05/19 07:59:14;;;;;;;6.55;3.25;;;15.40;91.40;;;;;;5052565;28;20044;-80
2023/05/19 08:01:42;;;;;;;6.80;3.42;;;15.40;91.00;;;;;;5087694;28;20502;-80
2023/05/19 08:04:10;;;;;;;6.00;2.92;;;15.60;90.60;;;;;;5069639;28;20097;-80
2023/05/19 08:06:35;;;;;;;9.02;3.08;;;15.60;90.00;;;;;;5069378;28;20478;-81
2023/05/19 08:09:04;;;;;;;4.45;2.90;;;15.80;88.60;;;;;;5086944;28;20051;-80
2023/05/19 08:11:30;;;;;;;5.55;2.88;;;15.90;87.20;;;;;;5088881;28;20040;-80
2023/05/19 08:13:55;;;;;;;6.18;2.50;;;15.90;85.50;;;;;;5087694;28;20044;-80
2023/05/19 08:16:23;;;;;;;6.85;2.60;;;16.00;84.70;;;;;;5087443;28;20127;-80
2023/05/19 08:18:49;;;;;;;8.95;3.03;;;16.20;83.10;;;;;;5086771;28;20044;-80
2023/05/19 08:21:15;;;;;;;7.78;2.70;;;16.30;81.50;;;;;;5071123;28;20051;-79
2023/05/19 08:23:40;;;;;;;5.63;3.08;;;16.30;80.20;;;;;;5084606;28;20046;-79
2023/05/19 08:26:06;;;;;;;6.38;2.50;;;16.20;77.90;;;;;;5069740;28;20052;-80
2023/05/19 08:28:31;;;;;;;4.72;2.63;;;16.30;78.70;;;;;;5084936;28;20047;-81
2023/05/19 08:30:57;;;;;;;5.93;2.80;;;16.80;78.50;;;;;;5068176;28;20364;-79
2023/05/19 08:33:22;;;;;;;5.25;2.55;;;16.70;78.30;;;;;;5085838;28;20097;-79
2023/05/19 08:35:48;;;;;;;4.13;2.10;;;16.80;77.00;;;;;;5106398;28;20040;-80
2023/05/19 08:38:14;;;;;;;7.50;2.85;;;16.80;75.80;;;;;;5102526;28;20040;-81
2023/05/19 08:40:46;;;;;;;5.90;2.20;;;16.90;75.60;;;;;;5087365;28;20056;-80
2023/05/19 08:43:11;;;;;;;;;;;17.10;74.70;;;;;;5088786;28;20083;-81
2023/05/19 08:45:41;;;;;;;5.28;2.58;;;17.00;71.00;;;;;;5069138;28;20372;-81
2023/05/19 08:48:08;;;;;;;7.85;2.60;;;16.90;73.80;;;;;;5069183;28;20400;-80
2023/05/19 08:50:38;;;;;;;5.55;2.78;;;16.80;74.10;;;;;;5087120;28;20436;-79
2023/05/19 08:53:11;;;;;;;5.93;2.30;;;16.60;72.00;;;;;;5069242;28;20085;-78
2023/05/19 08:56:09;;;;;;;6.38;2.70;;;16.60;71.50;;;;;;5087209;28;20039;-78
2023/05/19 08:58:38;;;;;;;3.47;2.55;;;16.80;70.00;;;;;;5078177;28;20044;-77
2023/05/19 09:01:04;;;;;;;4.43;2.60;;;16.90;71.80;;;;;;5067846;28;20125;-77
2023/05/19 09:03:36;;;;;;;3.92;2.40;;;17.00;69.70;;;;;;5067846;28;20502;-80
2023/05/19 09:06:05;;;;;;;6.20;2.72;;;17.00;69.80;;;;;;5049860;28;20141;-80
2023/05/19 09:08:30;;;;;;;4.68;2.30;;;17.10;66.40;;;;;;5049383;28;20044;-76
2023/05/19 09:10:56;;;;;;;6.15;2.60;;;17.10;68.00;;;;;;5070289;28;20056;-79
2023/05/19 09:13:22;;;;;;;3.40;2.20;;;17.10;67.30;;;;;;5087559;28;20032;-78
2023/05/19 09:15:51;;;;;;;6.00;2.45;;;17.20;66.80;;;;;;5087935;28;20047;-78
2023/05/19 09:18:17;;;;;;;6.72;2.50;;;17.30;65.90;;;;;;5068916;28;20044;-78
2023/05/19 09:20:44;;;;;;;5.45;2.53;;;17.50;65.60;;;;;;5088117;28;20044;-78
2023/05/19 09:23:15;;;;;;;4.35;2.40;;;17.40;64.30;;;;;;5087362;28;20113;-78
2023/05/19 09:25:51;;;;;;;4.72;2.30;;;17.40;63.90;;;;;;5086359;28;20051;-78
2023/05/19 09:28:28;;;;;;;5.05;2.25;;;17.40;62.90;;;;;;5067396;28;20040;-77
2023/05/19 09:31:00;;;;;;;3.85;2.03;;;17.50;64.60;;;;;;5087396;28;20470;-78
2023/05/19 09:33:28;;;;;;;3.85;2.30;;;17.80;63.60;;;;;;5087436;28;20083;-77
2023/05/19 09:35:57;;;;;;;6.90;2.92;;;18.00;63.20;;;;;;5069465;28;20410;-78
2023/05/19 09:38:26;;;;;;;4.72;2.20;;;18.10;63.50;;;;;;5069152;28;20044;-79
2023/05/19 09:40:55;;;;;;;5.00;2.38;;;18.00;62.90;;;;;;5067365;28;20048;-78
2023/05/19 09:43:21;;;;;;;6.93;2.20;;;17.80;62.90;;;;;;5085356;28;20094;-78
2023/05/19 09:45:47;;;;;;;3.53;2.33;;;17.80;63.20;;;;;;5069165;28;20044;-77
2023/05/19 09:48:16;;;;;;;4.47;2.33;;;17.80;62.70;;;;;;5085897;28;20060;-78
2023/05/19 09:50:44;;;;;;;4.53;2.17;;;17.70;61.60;;;;;;5085066;28;20056;-79
2023/05/19 09:53:15;;;;;;;5.43;2.45;;;17.80;62.10;;;;;;5086412;28;20469;-79
2023/05/19 09:55:41;;;;;;;6.68;2.72;;;17.80;62.40;;;;;;5085836;28;20059;-78
2023/05/19 09:58:08;;;;;;;4.25;2.20;;;17.80;61.90;;;;;;5068897;28;20040;-78
2023/05/19 10:00:43;;;;;;;4.47;2.47;;;17.90;61.70;;;;;;5068888;28;20056;-79
2023/05/19 10:03:08;;;;;;;5.65;2.60;;;18.20;61.20;;;;;;5087494;28;20048;-79
2023/05/19 10:05:35;;;;;;;5.72;2.47;;;18.20;61.90;;;;;;5069308;28;20135;-80
2023/05/19 10:08:01;;;;;;;6.50;2.75;;;18.30;61.00;;;;;;5087100;28;20043;-80
2023/05/19 10:10:28;;;;;;;5.70;2.63;;;18.30;60.40;;;;;;5051540;28;20037;-79
2023/05/19 10:12:54;;;;;;;5.65;2.60;;;18.50;60.00;;;;;;5086331;28;20044;-79
2023/05/19 10:15:20;;;;;;;2.90;2.10;;;18.40;59.50;;;;;;5086061;28;20131;-76
2023/05/19 10:17:46;;;;;;;3.00;2.10;;;18.40;60.10;;;;;;5087252;28;20451;-79
2023/05/19 10:20:13;;;;;;;3.45;2.17;;;18.30;58.90;;;;;;5086944;28;20089;-80
2023/05/19 10:22:43;;;;;;;5.45;2.10;;;18.30;60.20;;;;;;5086957;28;20097;-80
2023/05/19 10:25:11;;;;;;;4.45;2.25;;;18.30;59.70;;;;;;5083679;28;20047;-79
2023/05/19 10:27:57;;;;;;;5.28;2.30;;;18.30;59.60;;;;;;5088715;28;20531;-80
2023/05/19 10:30:34;;;;;;;4.22;2.10;;;18.30;58.60;;;;;;5082096;28;20055;-79
2023/05/19 10:33:02;;;;;;;4.68;2.20;;;18.30;59.20;;;;;;5075358;28;20035;-80
2023/05/19 10:35:52;;;;;;;8.13;2.28;;;18.30;59.80;;;;;;5110928;28;20040;-79
2023/05/19 10:38:26;;;;;;;2.88;2.10;;;18.50;58.50;;;;;;5091701;28;20148;-80
2023/05/19 10:41:18;;;;;;;3.30;1.98;;;18.70;58.50;;;;;;5089773;28;20048;-80
2023/05/19 10:43:57;;;;;;;4.78;2.28;;;18.70;57.90;;;;;;5073013;28;20063;-79
2023/05/19 10:46:27;;;;;;;6.47;2.00;;;18.80;58.30;;;;;;5071309;28;20082;-79
2023/05/19 10:48:54;;;;;;;5.15;2.50;;;18.90;58.30;;;;;;5083566;28;20117;-80
2023/05/19 10:51:20;;;;;;;7.15;2.75;;;18.70;58.00;;;;;;5087495;28;20090;-79
2023/05/19 10:53:46;;;;;;;7.20;2.50;;;18.70;57.80;;;;;;5067176;28;20076;-80
2023/05/19 10:56:31;;;;;;;7.30;2.40;;;18.40;57.50;;;;;;5047642;28;20044;-78
2023/05/19 10:58:57;;;;;;;4.00;2.40;;;18.20;56.20;;;;;;5070816;28;20040;-78
2023/05/19 11:01:32;;;;;;;6.10;2.47;;;18.20;58.30;;;;;;5090331;28;20448;-79
2023/05/19 11:04:11;;;;;;;5.43;2.40;;;18.40;58.90;;;;;;5090214;28;20105;-79
2023/05/19 11:06:39;;;;;;;4.95;2.50;;;18.50;57.60;;;;;;5089456;28;20051;-79
2023/05/19 11:09:11;;;;;;;5.38;2.25;;;18.60;57.80;;;;;;5089438;28;20047;-79
2023/05/19 11:11:51;;;;;;;6.35;3.00;;;18.90;57.40;;;;;;5088640;28;20048;-79
2023/05/19 11:14:22;;;;;;;6.28;2.53;;;18.70;57.00;;;;;;5087129;28;20040;-79
2023/05/19 11:16:56;;;;;;;4.07;2.15;;;18.60;57.50;;;;;;5089915;28;20052;-79
2023/05/19 11:19:33;;;;;;;4.22;2.30;;;18.90;57.90;;;;;;5071119;28;20048;-79
2023/05/19 11:22:12;;;;;;;8.05;2.58;;;19.00;57.50;;;;;;5078910;28;20194;-79
2023/05/19 11:24:43;;;;;;;4.57;2.35;;;19.10;55.20;;;;;;5068954;28;20183;-81
2023/05/19 11:27:36;;;;;;;5.40;2.65;;;19.20;56.70;;;;;;5069650;28;20885;-77
2023/05/19 11:30:13;;;;;;;4.70;2.67;;;19.10;55.60;;;;;;5069403;28;20036;-77
2023/05/19 11:32:41;;;;;;;5.65;2.22;;;19.00;56.40;;;;;;5088905;28;20044;-77
2023/05/19 11:35:08;;;;;;;4.32;2.88;;;19.00;57.00;;;;;;5089479;28;20131;-77
2023/05/19 11:37:34;;;;;;;3.80;2.15;;;19.10;57.00;;;;;;5069326;28;20121;-77
2023/05/19 11:40:08;;;;;;;4.68;2.13;;;19.10;56.60;;;;;;5068613;28;20595;-78
2023/05/19 11:42:35;;;;;;;3.53;2.17;;;19.20;57.00;;;;;;5088585;28;20442;-77
2023/05/19 11:45:02;;;;;;;4.85;2.20;;;19.20;56.90;;;;;;5088925;28;20048;-77
2023/05/19 11:47:29;;;;;;;4.40;2.38;;;19.30;57.60;;;;;;5088282;28;20556;-77
2023/05/19 11:49:55;;;;;;;3.25;2.00;;;19.40;57.00;;;;;;5089091;28;20051;-77
2023/05/19 11:52:26;;;;;;;5.00;2.65;;;19.20;56.50;;;;;;5089251;28;20036;-77
2023/05/19 11:54:52;;;;;;;8.95;2.50;;;19.30;56.70;;;;;;5088315;28;20543;-77
2023/05/19 11:57:17;;;;;;;7.40;2.42;;;19.30;57.00;;;;;;5088256;28;20117;-78
2023/05/19 11:59:44;;;;;;;5.82;2.53;;;19.40;56.80;;;;;;5088872;28;20130;-77
2023/05/19 12:02:16;;;;;;;3.88;1.85;;;19.60;56.20;;;;;;5089096;28;20040;-78
2023/05/19 12:04:41;;;;;;;3.47;2.08;;;19.60;55.30;;;;;;5089150;28;20040;-78
2023/05/19 12:07:07;;;;;;;6.05;2.22;;;19.70;55.80;;;;;;5070843;28;20144;-77
2023/05/19 12:09:33;;;;;;;7.93;2.22;;;19.70;55.30;;;;;;5088332;28;20087;-79
2023/05/19 12:11:59;;;;;;;5.50;2.10;;;19.50;54.70;;;;;;5087869;28;20040;-80
2023/05/19 12:14:26;;;;;;;6.80;2.05;;;19.70;55.00;;;;;;5070882;28;20083;-78
2023/05/19 12:16:51;;;;;;;6.15;2.15;;;19.80;54.80;;;;;;5070501;28;20509;-79
2023/05/19 12:19:17;;;;;;;6.00;2.42;;;19.90;54.30;;;;;;5088343;28;20036;-78
2023/05/19 12:21:43;;;;;;;5.70;2.72;;;19.60;54.10;;;;;;5070021;28;20124;-79
2023/05/19 12:24:09;;;;;;;4.82;2.25;;;19.70;54.60;;;;;;5068453;28;20371;-79
2023/05/19 12:26:36;;;;;;;5.60;2.00;;;19.70;54.50;;;;;;5079931;28;20051;-79
2023/05/19 12:29:05;;;;;;;5.47;2.17;;;19.90;54.80;;;;;;5078298;28;20049;-78
2023/05/19 12:31:33;;;;;;;3.63;2.25;;;20.00;54.40;;;;;;5064755;28;20083;-78
2023/05/19 12:34:00;;;;;;;4.13;1.95;;;19.80;54.00;;;;;;5063250;28;20143;-78
2023/05/19 12:36:27;;;;;;;3.55;2.05;;;19.90;54.50;;;;;;5042016;28;20106;-79
2023/05/19 12:38:56;;;;;;;5.35;2.25;;;20.00;54.70;;;;;;5075392;28;20047;-78
2023/05/19 12:41:23;;;;;;;4.32;2.10;;;20.10;54.40;;;;;;5072185;28;20037;-78
2023/05/19 12:43:49;;;;;;;4.40;2.22;;;20.20;54.30;;;;;;5079737;28;20139;-79
2023/05/19 12:46:18;;;;;;;6.63;2.30;;;20.20;53.80;;;;;;5077073;28;20676;-78
2023/05/19 12:48:44;;;;;;;4.97;2.08;;;20.20;53.70;;;;;;5070722;28;20071;-78
2023/05/19 12:51:17;;;;;;;5.22;2.50;;;20.30;54.10;;;;;;5080618;28;21017;-79
2023/05/19 12:53:43;;;;;;;4.10;2.10;;;20.30;54.00;;;;;;5057848;28;20044;-78